Time;durP1;ratioP1;P1;durP2;ratioP2;P2;SDS_P1;SDS_P2;PMS_P1;PMS_P2;Temp;Humidity;BMP_temperature;BMP_pressure;BME280_temperature;BME280_humidity;BME280_pressure;Samples;Min_cycle;Max_cycle;Signal;HPM_P1;HPM_P2
2021/05/22 00:01:58;;;;;;;4.32;2.13;;;18.10;67.90;;;;;;5072554;28;20077;-57
2021/05/22 00:04:25;;;;;;;5.90;2.65;;;18.20;67.30;;;;;;5072698;28;20020;-54
2021/05/22 00:06:52;;;;;;;9.48;2.78;;;18.30;67.30;;;;;;5072689;28;20187;-56
2021/05/22 00:09:20;;;;;;;7.03;2.90;;;18.40;67.00;;;;;;5073065;28;20099;-58
2021/05/22 00:11:47;;;;;;;5.97;2.35;;;18.40;67.00;;;;;;5072864;28;20036;-61
2021/05/22 00:14:14;;;;;;;6.07;2.33;;;18.50;66.70;;;;;;5072900;28;20047;-53
2021/05/22 00:16:42;;;;;;;6.70;2.80;;;18.60;66.10;;;;;;5072555;28;20102;-54
2021/05/22 00:19:09;;;;;;;6.80;2.58;;;18.60;66.50;;;;;;5072424;28;20453;-63
2021/05/22 00:21:36;;;;;;;5.35;2.45;;;18.70;65.70;;;;;;5072713;28;20405;-54
2021/05/22 00:24:04;;;;;;;7.70;2.75;;;18.90;65.60;;;;;;5072513;28;20104;-59
2021/05/22 00:26:32;;;;;;;7.72;2.58;;;18.90;65.50;;;;;;5071791;28;20391;-59
2021/05/22 00:28:59;;;;;;;5.82;2.38;;;19.00;65.60;;;;;;5072556;28;20082;-60
2021/05/22 00:31:26;;;;;;;3.30;2.00;;;19.00;65.90;;;;;;5072195;28;20375;-56
2021/05/22 00:33:54;;;;;;;5.72;2.33;;;19.10;65.70;;;;;;5072231;28;20024;-60
2021/05/22 00:36:21;;;;;;;4.07;2.17;;;19.20;65.40;;;;;;5072459;28;20032;-62
2021/05/22 00:38:48;;;;;;;3.78;1.90;;;19.30;65.20;;;;;;5072219;28;20020;-62
2021/05/22 00:41:16;;;;;;;4.43;2.00;;;19.30;65.20;;;;;;5071995;28;20328;-65
2021/05/22 00:43:43;;;;;;;14.85;3.67;;;19.30;65.20;;;;;;5072208;28;20060;-60
2021/05/22 00:46:11;;;;;;;11.10;2.78;;;19.40;64.40;;;;;;5072221;28;20032;-61
2021/05/22 00:48:39;;;;;;;2.90;1.85;;;19.60;64.40;;;;;;5071893;28;20024;-65
2021/05/22 00:51:07;;;;;;;10.68;3.03;;;19.60;64.80;;;;;;5071714;28;20024;-57
2021/05/22 00:53:35;;;;;;;18.05;3.17;;;19.70;64.20;;;;;;5072205;28;20498;-57
2021/05/22 00:56:03;;;;;;;4.97;1.98;;;19.90;63.30;;;;;;5071765;28;20117;-63
2021/05/22 00:58:31;;;;;;;2.88;1.85;;;19.80;63.90;;;;;;5071341;28;20367;-59
2021/05/22 01:00:59;;;;;;;7.05;2.17;;;20.00;63.80;;;;;;5071570;28;20017;-61
2021/05/22 01:03:49;;;;;;;3.33;1.92;;;19.80;64.10;;;;;;5072165;28;20106;-59
2021/05/22 01:06:23;;;;;;;7.13;2.28;;;20.00;63.90;;;;;;5072240;28;20050;-56
2021/05/22 01:08:58;;;;;;;3.85;1.90;;;20.10;63.30;;;;;;5072013;28;20031;-60
2021/05/22 01:11:44;;;;;;;10.85;2.90;;;20.00;63.80;;;;;;5071618;28;20048;-59
2021/05/22 01:14:32;;;;;;;3.63;1.80;;;20.20;63.10;;;;;;5071819;28;20028;-64
2021/05/22 01:17:01;;;;;;;3.53;2.10;;;20.20;63.40;;;;;;5072278;28;20025;-62
2021/05/22 01:19:53;;;;;;;7.05;2.40;;;20.40;63.10;;;;;;5072246;28;20576;-64
2021/05/22 01:22:23;;;;;;;9.65;2.30;;;20.50;62.50;;;;;;5071665;28;20093;-62
2021/05/22 01:24:54;;;;;;;6.75;2.53;;;20.60;62.00;;;;;;5071387;28;20379;-60
2021/05/22 01:27:22;;;;;;;5.30;2.42;;;20.80;61.40;;;;;;5072012;28;20546;-61
2021/05/22 01:29:50;;;;;;;3.67;1.50;;;20.80;61.70;;;;;;5068253;28;20024;-59
2021/05/22 01:32:18;;;;;;;8.05;2.72;;;20.80;61.90;;;;;;5071576;28;20031;-56
2021/05/22 01:34:46;;;;;;;5.22;2.10;;;20.80;61.90;;;;;;5071466;28;20028;-58
2021/05/22 01:37:14;;;;;;;3.22;1.88;;;21.00;61.50;;;;;;5069928;28;20442;-55
2021/05/22 01:39:41;;;;;;;6.15;1.98;;;21.10;61.20;;;;;;5071592;28;20031;-61
2021/05/22 01:42:09;;;;;;;7.10;3.13;;;21.20;60.50;;;;;;5071327;28;20031;-57
2021/05/22 01:44:38;;;;;;;11.30;3.08;;;21.40;60.20;;;;;;5071387;28;20024;-56
2021/05/22 01:47:07;;;;;;;7.65;2.22;;;21.60;59.90;;;;;;5072362;28;20114;-61
2021/05/22 01:49:35;;;;;;;4.80;2.08;;;21.70;59.60;;;;;;5070940;28;20024;-59
2021/05/22 01:52:07;;;;;;;5.55;2.05;;;21.80;59.40;;;;;;5073816;28;20055;-61
2021/05/22 01:54:36;;;;;;;6.03;2.58;;;21.80;59.00;;;;;;5074509;28;20024;-63
2021/05/22 01:57:04;;;;;;;6.35;2.00;;;21.90;58.80;;;;;;5074802;28;20394;-59
2021/05/22 01:59:31;;;;;;;6.45;2.00;;;21.90;59.50;;;;;;5074581;28;20051;-63
2021/05/22 02:01:58;;;;;;;4.90;2.40;;;22.00;58.80;;;;;;5074628;28;20043;-64
2021/05/22 02:04:28;;;;;;;5.63;2.33;;;22.00;58.60;;;;;;5074581;28;20025;-60
2021/05/22 02:06:59;;;;;;;4.38;1.63;;;22.00;58.70;;;;;;5075294;28;20024;-58
2021/05/22 02:09:27;;;;;;;5.95;1.98;;;21.90;58.90;;;;;;5074920;28;20028;-61
2021/05/22 02:11:55;;;;;;;7.68;2.15;;;22.00;58.60;;;;;;5074673;28;20045;-60
2021/05/22 02:14:30;;;;;;;3.78;1.88;;;22.10;59.00;;;;;;5074417;28;20043;-52
2021/05/22 02:16:58;;;;;;;3.97;1.67;;;22.10;59.10;;;;;;5074848;28;20023;-64
2021/05/22 02:19:28;;;;;;;13.82;2.33;;;22.10;59.00;;;;;;5073350;28;20029;-63
2021/05/22 02:21:57;;;;;;;7.18;1.95;;;22.20;58.00;;;;;;5074811;28;20422;-58
2021/05/22 02:24:25;;;;;;;5.78;2.40;;;22.40;58.30;;;;;;5073957;28;20434;-61
2021/05/22 02:27:00;;;;;;;3.63;1.85;;;22.40;58.60;;;;;;5073101;28;20093;-60
2021/05/22 02:29:29;;;;;;;6.07;3.17;;;22.40;58.60;;;;;;5074532;28;20044;-63
2021/05/22 02:31:59;;;;;;;12.13;2.70;;;22.50;57.90;;;;;;5074220;28;20024;-59
2021/05/22 02:34:46;;;;;;;4.55;2.10;;;22.50;58.10;;;;;;5073964;28;20070;-64
2021/05/22 02:37:19;;;;;;;3.25;1.88;;;22.50;58.50;;;;;;5068237;28;20047;-54
2021/05/22 02:39:53;;;;;;;5.85;2.20;;;22.50;58.10;;;;;;5075735;28;20802;-55
2021/05/22 02:42:22;;;;;;;7.15;2.45;;;22.60;58.30;;;;;;5071722;28;20041;-57
2021/05/22 02:44:52;;;;;;;9.32;2.88;;;22.60;58.30;;;;;;5069454;28;20021;-55
2021/05/22 02:47:21;;;;;;;4.22;1.65;;;22.80;58.00;;;;;;5071692;28;20115;-60
2021/05/22 02:49:49;;;;;;;8.73;2.10;;;22.60;58.00;;;;;;5071947;28;20032;-56
2021/05/22 02:52:21;;;;;;;4.47;2.10;;;22.80;58.60;;;;;;5071510;28;20036;-57
2021/05/22 02:54:50;;;;;;;6.00;2.50;;;22.70;58.60;;;;;;5066829;28;20487;-51
2021/05/22 02:57:19;;;;;;;4.63;2.17;;;22.70;58.80;;;;;;5073238;28;20107;-53
2021/05/22 02:59:49;;;;;;;6.55;2.05;;;23.00;58.40;;;;;;5071642;28;20025;-60
2021/05/22 03:02:18;;;;;;;3.10;1.80;;;23.10;57.80;;;;;;5071013;28;20037;-54
2021/05/22 03:04:47;;;;;;;2.88;1.77;;;23.40;57.90;;;;;;5067470;28;20017;-54
2021/05/22 03:07:15;;;;;;;3.65;1.83;;;23.60;56.70;;;;;;5071319;28;20403;-59
2021/05/22 03:09:42;;;;;;;4.57;2.25;;;23.50;55.90;;;;;;5070523;28;20055;-53
2021/05/22 03:12:14;;;;;;;3.42;1.55;;;23.30;56.40;;;;;;5071199;28;20090;-56
2021/05/22 03:14:42;;;;;;;2.72;1.42;;;23.00;57.20;;;;;;5063945;28;20030;-60
2021/05/22 03:17:09;;;;;;;6.53;1.48;;;22.70;58.00;;;;;;5070135;28;20025;-58
2021/05/22 03:19:36;;;;;;;4.75;1.92;;;22.40;58.70;;;;;;5071210;28;20052;-58
2021/05/22 03:22:04;;;;;;;7.18;1.98;;;22.20;59.30;;;;;;5071169;28;20028;-56
2021/05/22 03:24:31;;;;;;;5.97;1.60;;;21.90;60.10;;;;;;5067352;28;20029;-57
2021/05/22 03:26:59;;;;;;;4.85;1.90;;;21.70;60.90;;;;;;5072248;28;20047;-64
2021/05/22 03:29:27;;;;;;;6.25;2.13;;;21.60;61.60;;;;;;5073585;28;20578;-62
2021/05/22 03:31:54;;;;;;;4.25;1.65;;;21.40;62.70;;;;;;5073595;28;20032;-62
2021/05/22 03:34:22;;;;;;;5.85;1.90;;;21.30;64.10;;;;;;5073299;28;20108;-64
2021/05/22 03:36:49;;;;;;;8.77;1.98;;;21.20;63.70;;;;;;5073258;28;20028;-62
2021/05/22 03:39:18;;;;;;;3.20;1.55;;;21.10;63.90;;;;;;5073553;28;20031;-60
2021/05/22 03:41:45;;;;;;;5.53;2.00;;;21.00;65.90;;;;;;5073059;28;20020;-63
2021/05/22 03:44:13;;;;;;;2.75;1.80;;;21.20;65.40;;;;;;5073178;28;20082;-62
2021/05/22 03:46:40;;;;;;;5.53;1.88;;;21.20;65.60;;;;;;5072918;28;20401;-63
2021/05/22 03:49:07;;;;;;;1.98;1.30;;;21.40;64.50;;;;;;5073000;28;20073;-61
2021/05/22 03:51:35;;;;;;;5.72;1.73;;;21.60;64.60;;;;;;5073208;28;20079;-63
2021/05/22 03:54:03;;;;;;;4.43;2.05;;;21.80;63.70;;;;;;5071929;28;20374;-62
2021/05/22 03:56:30;;;;;;;11.00;2.30;;;22.20;62.90;;;;;;5072663;28;20024;-64
2021/05/22 03:58:57;;;;;;;3.17;1.52;;;22.30;62.00;;;;;;5073459;28;20051;-56
2021/05/22 04:01:25;;;;;;;5.35;1.52;;;22.40;61.60;;;;;;5074233;28;20028;-57
2021/05/22 04:03:55;;;;;;;9.43;1.70;;;22.60;61.20;;;;;;5073982;28;20039;-53
2021/05/22 04:06:22;;;;;;;4.72;2.20;;;22.70;59.80;;;;;;5073642;28;20021;-57
2021/05/22 04:08:50;;;;;;;2.88;1.17;;;22.60;59.50;;;;;;5072806;28;20016;-60
2021/05/22 04:11:17;;;;;;;5.15;1.27;;;22.30;60.20;;;;;;5072400;28;20384;-59
2021/05/22 04:13:44;;;;;;;3.85;1.92;;;22.10;61.40;;;;;;5072229;28;20027;-62
2021/05/22 04:16:12;;;;;;;4.30;1.70;;;21.90;61.70;;;;;;5071766;28;20036;-57
2021/05/22 04:18:39;;;;;;;2.25;1.38;;;21.80;62.20;;;;;;5072295;28;20029;-60
2021/05/22 04:21:07;;;;;;;6.00;2.60;;;21.60;63.40;;;;;;5072144;28;20025;-52
2021/05/22 04:23:34;;;;;;;12.73;4.78;;;21.60;63.60;;;;;;5058484;28;20028;-53
2021/05/22 04:26:02;;;;;;;6.20;3.50;;;21.50;63.90;;;;;;5067533;28;20372;-53
2021/05/22 04:28:29;;;;;;;6.57;4.03;;;21.50;64.40;;;;;;5074799;28;20020;-55
2021/05/22 04:30:57;;;;;;;6.80;4.10;;;21.30;64.80;;;;;;5063857;28;20025;-58
2021/05/22 04:33:24;;;;;;;8.77;4.70;;;21.50;65.20;;;;;;5071386;28;20113;-56
2021/05/22 04:35:51;;;;;;;14.48;10.20;;;21.50;65.00;;;;;;5071133;28;20078;-54
2021/05/22 04:38:19;;;;;;;14.75;6.88;;;21.50;65.40;;;;;;5071092;28;20490;-59
2021/05/22 04:40:46;;;;;;;10.25;4.22;;;21.60;65.10;;;;;;5070800;28;20430;-62
2021/05/22 04:43:13;;;;;;;11.05;6.40;;;21.50;65.90;;;;;;5071711;28;20032;-65
2021/05/22 04:45:41;;;;;;;17.58;12.32;;;21.50;66.00;;;;;;5066935;28;20036;-63
2021/05/22 04:48:09;;;;;;;15.82;5.68;;;21.60;65.70;;;;;;5071128;28;20033;-64
2021/05/22 04:50:36;;;;;;;15.75;7.07;;;21.80;65.40;;;;;;5070169;28;20031;-70
2021/05/22 04:53:03;;;;;;;13.68;6.20;;;21.90;65.20;;;;;;5070983;28;20115;-60
2021/05/22 04:55:31;;;;;;;10.95;6.40;;;22.00;64.80;;;;;;5070868;28;20029;-63
2021/05/22 04:57:58;;;;;;;21.38;6.80;;;22.10;64.20;;;;;;5070850;28;20033;-60
2021/05/22 05:00:26;;;;;;;19.52;7.07;;;22.40;63.90;;;;;;5069044;28;20039;-62
2021/05/22 05:02:55;;;;;;;17.90;6.93;;;22.60;63.30;;;;;;5070773;28;20036;-62
2021/05/22 05:05:23;;;;;;;12.77;6.65;;;22.60;62.90;;;;;;5070974;28;20452;-64
2021/05/22 05:07:51;;;;;;;17.67;7.10;;;22.80;63.90;;;;;;5070604;28;20063;-61
2021/05/22 05:10:18;;;;;;;11.88;5.65;;;22.80;62.70;;;;;;5069925;28;20064;-67
2021/05/22 05:12:46;;;;;;;15.30;6.30;;;23.10;62.20;;;;;;5070483;28;20021;-65
2021/05/22 05:15:13;;;;;;;15.60;6.00;;;23.20;61.40;;;;;;5070637;28;20028;-64
2021/05/22 05:17:41;;;;;;;18.35;5.93;;;23.10;62.30;;;;;;5071507;28;20033;-64
2021/05/22 05:20:09;;;;;;;7.88;5.20;;;23.20;61.80;;;;;;5064475;28;20404;-65
2021/05/22 05:22:36;;;;;;;14.52;5.85;;;23.20;61.50;;;;;;5063597;28;20124;-65
2021/05/22 05:25:05;;;;;;;18.02;6.35;;;23.20;62.60;;;;;;5067598;28;20033;-65
2021/05/22 05:27:36;;;;;;;11.40;5.35;;;23.20;62.20;;;;;;5074674;28;20111;-59
2021/05/22 05:30:04;;;;;;;11.00;4.57;;;23.20;62.50;;;;;;5070725;28;20111;-66
2021/05/22 05:32:32;;;;;;;10.50;4.90;;;23.20;61.90;;;;;;5074677;28;20033;-62
2021/05/22 05:34:59;;;;;;;15.82;4.30;;;23.20;62.00;;;;;;5075479;28;20024;-64
2021/05/22 05:37:26;;;;;;;19.75;6.88;;;23.10;62.10;;;;;;5075109;28;20017;-65
2021/05/22 05:39:54;;;;;;;20.02;4.55;;;23.00;62.20;;;;;;5071723;28;20488;-63
2021/05/22 05:42:22;;;;;;;16.23;8.93;;;22.90;62.00;;;;;;5072207;28;20037;-65
2021/05/22 05:44:50;;;;;;;15.50;5.45;;;22.90;62.10;;;;;;5088809;28;20021;-66
2021/05/22 05:47:17;;;;;;;14.15;4.30;;;22.70;63.50;;;;;;5075207;28;20029;-61
2021/05/22 05:49:44;;;;;;;19.67;8.95;;;22.50;63.00;;;;;;5069980;28;20044;-63
2021/05/22 05:52:12;;;;;;;17.65;9.48;;;22.40;64.40;;;;;;5076641;28;20425;-66
2021/05/22 05:54:39;;;;;;;15.70;7.45;;;22.30;65.30;;;;;;5076968;28;20024;-64
2021/05/22 05:57:06;;;;;;;20.88;7.47;;;22.10;65.90;;;;;;5077756;28;20025;-64
2021/05/22 05:59:34;;;;;;;19.08;7.82;;;22.00;65.90;;;;;;5077035;28;20095;-64
2021/05/22 06:02:01;;;;;;;38.72;17.08;;;21.70;67.40;;;;;;5077372;28;20517;-66
2021/05/22 06:04:29;;;;;;;24.23;12.07;;;21.60;68.10;;;;;;5076817;28;20027;-67
2021/05/22 06:06:56;;;;;;;30.23;13.77;;;21.50;68.60;;;;;;5075735;28;20409;-62
2021/05/22 06:09:23;;;;;;;17.60;9.73;;;21.40;68.90;;;;;;5075027;28;20103;-62
2021/05/22 06:11:51;;;;;;;22.67;9.95;;;21.50;68.60;;;;;;5076999;28;20040;-67
2021/05/22 06:14:27;;;;;;;21.17;9.77;;;21.30;69.40;;;;;;5076798;28;20109;-64
2021/05/22 06:16:55;;;;;;;17.92;10.45;;;21.30;69.10;;;;;;5077550;28;20075;-62
2021/05/22 06:19:22;;;;;;;15.38;7.97;;;21.20;69.60;;;;;;5075025;28;20138;-65
2021/05/22 06:21:49;;;;;;;13.98;7.90;;;21.10;69.60;;;;;;5077005;28;20024;-67
2021/05/22 06:24:17;;;;;;;22.50;11.20;;;21.10;70.60;;;;;;5077667;28;20360;-64
2021/05/22 06:26:44;;;;;;;20.08;7.45;;;21.00;70.90;;;;;;5077748;28;20027;-63
2021/05/22 06:29:13;;;;;;;18.10;7.38;;;21.00;70.80;;;;;;5072935;28;20035;-65
2021/05/22 06:31:41;;;;;;;22.75;6.40;;;20.90;71.30;;;;;;5077725;28;20075;-64
2021/05/22 06:34:08;;;;;;;12.25;5.95;;;20.80;71.80;;;;;;5077170;28;20030;-58
2021/05/22 06:36:36;;;;;;;12.43;5.47;;;20.80;71.70;;;;;;5077088;28;20039;-63
2021/05/22 06:39:04;;;;;;;13.07;4.88;;;20.70;72.30;;;;;;5072019;28;20043;-66
2021/05/22 06:41:31;;;;;;;24.50;5.45;;;20.60;72.40;;;;;;5073796;28;20497;-67
2021/05/22 06:43:59;;;;;;;11.63;5.30;;;20.60;72.90;;;;;;5073833;28;20066;-66
2021/05/22 06:48:54;;;;;;;33.28;5.43;;;20.50;74.10;;;;;;5072762;28;20030;-64
2021/05/22 06:51:22;;;;;;;33.28;5.20;;;20.50;74.60;;;;;;5073450;28;20024;-61
2021/05/22 06:53:49;;;;;;;28.65;5.32;;;20.40;74.50;;;;;;5071842;28;20025;-55
2021/05/22 06:56:19;;;;;;;16.98;5.47;;;20.30;74.00;;;;;;5073781;28;20021;-57
2021/05/22 06:58:46;;;;;;;20.27;4.28;;;20.20;73.90;;;;;;5069672;28;20036;-65
2021/05/22 07:01:14;;;;;;;23.00;3.92;;;20.20;74.50;;;;;;5053854;28;20035;-63
2021/05/22 07:03:41;;;;;;;20.80;4.43;;;20.10;75.50;;;;;;5073912;28;20127;-60
2021/05/22 07:06:11;;;;;;;11.02;3.80;;;20.00;75.00;;;;;;5068359;28;20525;-60
2021/05/22 07:08:40;;;;;;;16.38;3.88;;;20.00;75.60;;;;;;5071965;28;20033;-57
2021/05/22 07:11:08;;;;;;;14.40;3.00;;;20.00;75.60;;;;;;5073773;28;20081;-60
2021/05/22 07:13:35;;;;;;;21.25;3.90;;;20.00;75.30;;;;;;5073138;28;20029;-58
2021/05/22 07:16:04;;;;;;;14.32;3.55;;;20.00;76.30;;;;;;5066627;28;20510;-59
2021/05/22 07:18:32;;;;;;;23.52;3.38;;;20.00;76.60;;;;;;5068321;28;20194;-59
2021/05/22 07:20:59;;;;;;;11.52;3.15;;;20.00;76.50;;;;;;5058633;28;20061;-59
2021/05/22 07:23:26;;;;;;;11.45;3.13;;;20.00;76.30;;;;;;5062684;28;20040;-59
2021/05/22 07:25:54;;;;;;;13.93;3.55;;;19.90;76.10;;;;;;5073545;28;20131;-58
2021/05/22 07:28:21;;;;;;;30.73;4.90;;;19.90;77.40;;;;;;5073044;28;20427;-59
2021/05/22 07:30:48;;;;;;;25.77;3.67;;;19.80;78.30;;;;;;5073405;28;20025;-61
2021/05/22 07:33:17;;;;;;;17.83;3.97;;;19.80;79.00;;;;;;5072552;28;20024;-62
2021/05/22 07:35:44;;;;;;;9.57;3.63;;;19.80;78.50;;;;;;5072915;28;20064;-60
2021/05/22 07:38:12;;;;;;;16.63;3.30;;;19.80;78.20;;;;;;5069793;28;20447;-61
2021/05/22 07:40:39;;;;;;;23.52;3.72;;;19.70;77.90;;;;;;5073062;28;20075;-59
2021/05/22 07:43:06;;;;;;;15.10;3.60;;;19.70;78.40;;;;;;5071778;28;20028;-60
2021/05/22 07:45:34;;;;;;;10.65;3.70;;;19.70;77.80;;;;;;5072754;28;20029;-60
2021/05/22 07:48:03;;;;;;;11.43;3.50;;;19.70;77.90;;;;;;5072682;28;20111;-57
2021/05/22 07:50:31;;;;;;;20.90;3.80;;;19.60;78.40;;;;;;5071832;28;20090;-59
2021/05/22 07:52:59;;;;;;;15.32;3.30;;;19.60;79.60;;;;;;5072681;28;20042;-60
2021/05/22 07:55:26;;;;;;;14.02;4.05;;;19.60;79.10;;;;;;5072680;28;20070;-60
2021/05/22 07:57:53;;;;;;;14.02;3.88;;;19.60;78.70;;;;;;5072242;28;20413;-60
2021/05/22 08:00:21;;;;;;;20.63;4.10;;;19.50;79.10;;;;;;5072376;28;20039;-59
2021/05/22 08:02:49;;;;;;;29.58;5.47;;;19.50;78.90;;;;;;5072433;28;20046;-60
2021/05/22 08:05:17;;;;;;;16.20;5.40;;;19.50;80.00;;;;;;5073043;28;20028;-63
2021/05/22 08:07:44;;;;;;;10.00;3.95;;;19.50;79.20;;;;;;5073112;28;20352;-58
2021/05/22 08:10:15;;;;;;;13.35;3.97;;;19.40;78.80;;;;;;5066426;28;20570;-53
2021/05/22 08:12:43;;;;;;;6.85;3.78;;;19.30;78.70;;;;;;5071600;28;20033;-57
2021/05/22 08:15:11;;;;;;;25.75;4.53;;;19.20;78.50;;;;;;5066371;28;20053;-51
2021/05/22 08:17:40;;;;;;;13.02;4.57;;;19.20;78.40;;;;;;5068673;28;20077;-55
2021/05/22 08:20:10;;;;;;;20.13;5.75;;;19.20;78.60;;;;;;5063940;28;20025;-54
2021/05/22 08:22:37;;;;;;;18.05;8.57;;;19.10;78.50;;;;;;5066508;28;20123;-55
2021/05/22 08:25:07;;;;;;;14.65;7.85;;;19.10;78.60;;;;;;5060546;28;20025;-53
2021/05/22 08:27:34;;;;;;;14.75;8.48;;;19.00;78.50;;;;;;5070820;28;20391;-51
2021/05/22 08:30:02;;;;;;;13.95;9.80;;;19.00;78.50;;;;;;5072643;28;20127;-57
2021/05/22 08:32:30;;;;;;;21.50;11.23;;;19.00;78.80;;;;;;5071602;28;20024;-50
2021/05/22 08:34:57;;;;;;;19.10;11.63;;;19.00;79.30;;;;;;5070028;28;20032;-55
2021/05/22 08:37:25;;;;;;;15.60;10.98;;;18.90;78.70;;;;;;5071538;28;20363;-49
2021/05/22 08:39:52;;;;;;;18.02;12.00;;;18.80;78.00;;;;;;5071553;28;20438;-48
2021/05/22 08:42:25;;;;;;;20.40;11.52;;;18.80;78.40;;;;;;5069522;28;20036;-53
2021/05/22 08:44:54;;;;;;;21.08;12.75;;;18.70;78.70;;;;;;5065082;28;20036;-51
2021/05/22 08:47:21;;;;;;;17.08;14.70;;;18.70;78.60;;;;;;5069772;28;20029;-53
2021/05/22 08:49:49;;;;;;;17.48;15.18;;;18.60;78.60;;;;;;5071380;28;20155;-55
2021/05/22 08:52:19;;;;;;;19.98;17.88;;;18.60;78.80;;;;;;5071563;28;20025;-56
2021/05/22 08:54:47;;;;;;;21.48;19.23;;;18.50;79.00;;;;;;5068800;28;20024;-52
2021/05/22 08:57:15;;;;;;;26.10;21.35;;;18.50;79.40;;;;;;5071214;28;20032;-54
2021/05/22 08:59:45;;;;;;;26.20;21.08;;;18.50;79.40;;;;;;5071093;28;20027;-57
2021/05/22 09:02:19;;;;;;;27.20;24.40;;;18.40;79.50;;;;;;5070798;28;20452;-49
2021/05/22 09:05:10;;;;;;;30.05;26.75;;;18.40;79.50;;;;;;5068413;28;20047;-57
2021/05/22 09:07:40;;;;;;;28.38;25.58;;;18.30;80.20;;;;;;5070448;28;20028;-55
2021/05/22 09:10:27;;;;;;;27.38;24.58;;;18.30;79.90;;;;;;5071232;28;20029;-55
2021/05/22 09:13:04;;;;;;;30.13;24.35;;;18.30;79.90;;;;;;5057156;28;20422;-55
2021/05/22 09:15:37;;;;;;;25.25;21.88;;;18.30;80.10;;;;;;5068176;28;20459;-55
2021/05/22 09:18:13;;;;;;;23.92;19.98;;;18.30;80.40;;;;;;5071246;28;20418;-52
2021/05/22 09:20:59;;;;;;;23.33;21.00;;;18.30;80.60;;;;;;5070781;28;20043;-53
2021/05/22 09:23:39;;;;;;;23.83;19.17;;;18.20;80.50;;;;;;5070903;28;20060;-51
2021/05/22 09:26:17;;;;;;;24.85;19.52;;;18.20;80.50;;;;;;5071116;28;20507;-58
2021/05/22 09:28:50;;;;;;;21.30;19.05;;;18.20;80.40;;;;;;5070122;28;20028;-53
2021/05/22 09:31:23;;;;;;;23.85;18.17;;;18.20;80.50;;;;;;5071365;28;20032;-53
2021/05/22 09:33:57;;;;;;;18.60;16.00;;;18.20;80.40;;;;;;5066012;28;20032;-53
2021/05/22 09:36:25;;;;;;;19.60;16.85;;;18.20;80.40;;;;;;5070940;28;20024;-52
2021/05/22 09:38:55;;;;;;;18.90;16.90;;;18.10;80.20;;;;;;5067303;28;20024;-55
2021/05/22 09:41:29;;;;;;;17.80;15.90;;;18.10;80.00;;;;;;5070736;28;20033;-55
2021/05/22 09:44:15;;;;;;;21.05;16.85;;;18.10;80.00;;;;;;5065905;28;20040;-52
2021/05/22 09:46:45;;;;;;;17.80;14.77;;;18.10;79.90;;;;;;5068855;28;20029;-54
2021/05/22 09:49:42;;;;;;;21.00;15.23;;;18.10;79.90;;;;;;5071029;28;20116;-53
2021/05/22 09:52:17;;;;;;;20.35;14.90;;;18.00;79.70;;;;;;5054092;28;20040;-52
2021/05/22 09:54:52;;;;;;;15.98;13.20;;;18.10;79.80;;;;;;5069607;28;20054;-55
2021/05/22 09:57:34;;;;;;;14.18;12.73;;;18.00;79.60;;;;;;5070924;28;20419;-54
2021/05/22 10:00:36;;;;;;;16.17;14.23;;;18.00;79.70;;;;;;5071030;28;20090;-49
2021/05/22 10:03:05;;;;;;;20.00;13.45;;;18.00;79.60;;;;;;5065049;28;20068;-57
2021/05/22 10:05:34;;;;;;;16.85;13.60;;;18.00;79.50;;;;;;5070747;28;20035;-51
2021/05/22 10:08:06;;;;;;;18.42;13.05;;;18.00;79.60;;;;;;5070744;28;20032;-56
2021/05/22 10:10:47;;;;;;;18.92;13.88;;;17.90;79.70;;;;;;5071089;28;20052;-50
2021/05/22 10:13:19;;;;;;;17.50;13.00;;;17.90;79.90;;;;;;5072441;28;20025;-55
2021/05/22 10:15:53;;;;;;;13.52;12.13;;;17.90;79.80;;;;;;5074255;28;20033;-55
2021/05/22 10:18:26;;;;;;;14.63;12.15;;;17.90;80.20;;;;;;5075395;28;20036;-55
2021/05/22 10:20:55;;;;;;;14.50;12.05;;;17.90;79.70;;;;;;5074823;28;20032;-57
2021/05/22 10:23:23;;;;;;;15.35;12.20;;;17.90;79.70;;;;;;5074463;28;20039;-61
2021/05/22 10:25:58;;;;;;;15.45;12.05;;;17.90;79.90;;;;;;5073125;28;20020;-59
2021/05/22 10:28:27;;;;;;;13.85;11.82;;;17.80;79.70;;;;;;5073755;28;20024;-59
2021/05/22 10:30:55;;;;;;;15.55;12.00;;;17.80;79.50;;;;;;5074449;28;20051;-60
2021/05/22 10:33:23;;;;;;;14.27;11.15;;;17.80;79.70;;;;;;5075101;28;20352;-62
2021/05/22 10:35:56;;;;;;;13.18;11.45;;;17.80;79.50;;;;;;5074426;28;20506;-60
2021/05/22 10:38:37;;;;;;;12.30;10.88;;;17.70;79.50;;;;;;5068254;28;20025;-58
2021/05/22 10:41:14;;;;;;;15.10;11.52;;;17.70;79.40;;;;;;5070605;28;20106;-53
2021/05/22 10:43:53;;;;;;;19.00;11.63;;;17.70;79.70;;;;;;5078263;28;20395;-57
2021/05/22 10:46:21;;;;;;;17.77;10.60;;;17.70;79.70;;;;;;5074407;28;20035;-61
2021/05/22 10:49:00;;;;;;;18.38;11.52;;;17.70;79.40;;;;;;5074145;28;20078;-58
2021/05/22 10:51:34;;;;;;;12.07;10.38;;;17.70;79.60;;;;;;5070780;28;20031;-54
2021/05/22 10:54:05;;;;;;;15.40;11.20;;;17.60;79.60;;;;;;5070736;28;20103;-53
2021/05/22 10:56:33;;;;;;;13.75;10.88;;;17.60;79.40;;;;;;5077154;28;20522;-63
2021/05/22 10:59:06;;;;;;;13.00;10.93;;;17.60;79.50;;;;;;5073789;28;20029;-47
2021/05/22 11:01:43;;;;;;;12.90;10.18;;;17.60;80.10;;;;;;5075425;28;20525;-48
2021/05/22 11:04:13;;;;;;;16.30;11.50;;;17.60;79.80;;;;;;5055208;28;20098;-51
2021/05/22 11:06:42;;;;;;;13.75;11.10;;;17.60;79.80;;;;;;5074054;28;20051;-50
2021/05/22 11:09:29;;;;;;;11.27;9.90;;;17.60;80.00;;;;;;5072030;28;20031;-48
2021/05/22 11:12:14;;;;;;;13.20;10.45;;;17.50;79.80;;;;;;5072959;28;20506;-58
2021/05/22 11:14:53;;;;;;;14.57;10.68;;;17.50;79.60;;;;;;5069820;28;20056;-50
2021/05/22 11:17:27;;;;;;;13.90;10.77;;;17.50;80.10;;;;;;5073138;28;20034;-59
2021/05/22 11:20:14;;;;;;;13.27;10.65;;;17.50;79.80;;;;;;5067896;28;20023;-55
2021/05/22 11:22:56;;;;;;;15.13;10.80;;;17.50;80.10;;;;;;5058478;28;20055;-56
2021/05/22 11:25:28;;;;;;;13.57;10.50;;;17.50;80.20;;;;;;5068394;28;20024;-54
2021/05/22 11:28:00;;;;;;;12.68;10.27;;;17.50;80.10;;;;;;5072049;28;20043;-53
2021/05/22 11:30:33;;;;;;;15.20;10.40;;;17.50;79.90;;;;;;5068627;28;20027;-55
2021/05/22 11:33:09;;;;;;;14.95;10.45;;;17.50;79.80;;;;;;5070699;28;20112;-54
2021/05/22 11:35:38;;;;;;;13.30;10.07;;;17.50;79.80;;;;;;5071682;28;20027;-53
2021/05/22 11:38:17;;;;;;;15.10;10.52;;;17.50;80.00;;;;;;5071778;28;20025;-53
2021/05/22 11:40:45;;;;;;;15.35;10.35;;;17.40;79.70;;;;;;5067822;28;20029;-51
2021/05/22 11:43:16;;;;;;;15.65;11.55;;;17.40;79.50;;;;;;5071454;28;20040;-57
2021/05/22 11:45:50;;;;;;;15.13;11.23;;;17.40;79.90;;;;;;5072273;28;20387;-57
2021/05/22 11:48:41;;;;;;;16.33;10.23;;;17.40;79.50;;;;;;5072099;28;20030;-52
2021/05/22 11:51:18;;;;;;;14.60;10.18;;;17.40;79.50;;;;;;5066305;28;20356;-52
2021/05/22 11:54:00;;;;;;;14.00;10.13;;;17.40;79.50;;;;;;5071185;28;20495;-53
2021/05/22 11:56:37;;;;;;;14.75;10.48;;;17.30;79.50;;;;;;5070077;28;20032;-60
2021/05/22 11:59:06;;;;;;;11.05;9.90;;;17.30;79.70;;;;;;5074423;28;20074;-56
2021/05/22 12:01:40;;;;;;;17.77;10.45;;;17.30;79.60;;;;;;5073667;28;20474;-58
2021/05/22 12:04:12;;;;;;;15.60;9.82;;;17.30;79.60;;;;;;5073498;28;20435;-57
2021/05/22 12:06:43;;;;;;;;;;;17.20;79.60;;;;;;5073833;28;20446;-54
2021/05/22 12:09:20;;;;;;;14.93;10.73;;;17.20;79.60;;;;;;5073540;28;19905;-59
2021/05/22 12:11:58;;;;;;;12.30;9.85;;;17.20;79.80;;;;;;5073168;28;20052;-57
2021/05/22 12:14:38;;;;;;;15.95;9.63;;;17.20;80.00;;;;;;5073274;28;20450;-62
2021/05/22 12:17:07;;;;;;;13.65;9.73;;;17.10;80.10;;;;;;5073193;28;20467;-58
2021/05/22 12:19:42;;;;;;;13.60;10.38;;;17.10;79.90;;;;;;5071967;28;20470;-60
2021/05/22 12:22:10;;;;;;;15.40;9.38;;;17.10;79.90;;;;;;5072232;28;20055;-61
2021/05/22 12:24:38;;;;;;;13.05;9.68;;;17.00;79.90;;;;;;5072773;28;20077;-54
2021/05/22 12:27:06;;;;;;;13.20;10.00;;;17.00;80.00;;;;;;5072873;28;20024;-56
2021/05/22 12:29:34;;;;;;;12.98;9.10;;;17.00;80.10;;;;;;5073373;28;20025;-54
2021/05/22 12:32:05;;;;;;;11.45;9.18;;;17.00;80.30;;;;;;5073072;28;20115;-53
2021/05/22 12:34:37;;;;;;;15.45;10.07;;;16.90;80.30;;;;;;5071371;28;20555;-56
2021/05/22 12:37:20;;;;;;;13.48;9.55;;;16.90;80.60;;;;;;5072511;28;20089;-55
2021/05/22 12:39:53;;;;;;;13.07;9.80;;;16.90;80.70;;;;;;5072807;28;20032;-52
2021/05/22 12:42:27;;;;;;;12.20;10.02;;;16.90;80.80;;;;;;5072583;28;20036;-59
2021/05/22 12:45:22;;;;;;;11.75;9.15;;;16.80;80.90;;;;;;5072530;28;20145;-54
2021/05/22 12:47:53;;;;;;;14.25;8.90;;;16.80;81.00;;;;;;5070817;28;20036;-57
2021/05/22 12:50:30;;;;;;;10.35;8.80;;;16.80;81.20;;;;;;5072619;28;20521;-61
2021/05/22 12:53:06;;;;;;;13.38;10.15;;;16.80;81.20;;;;;;5072678;28;20035;-61
2021/05/22 12:55:35;;;;;;;12.75;9.68;;;16.80;81.30;;;;;;5072453;28;20017;-55
2021/05/22 12:58:20;;;;;;;16.48;10.60;;;16.70;81.40;;;;;;5072857;28;20021;-54